sensor_id;sensor_type;location;lat;lon;timestamp;pressure;altitude;pressure_sealevel;temperature;humidity
63954;BME280;50128;52.094;5.232;2022-09-09T00:00:11;100652.0;;;16.59;89.54
63954;BME280;50128;52.094;5.232;2022-09-09T00:01:54;100655.0;;;16.53;89.59
63954;BME280;50128;52.094;5.232;2022-09-09T00:03:40;100652.0;;;16.5;90.6
63954;BME280;50128;52.094;5.232;2022-09-09T00:07:10;100656.0;;;16.36;91.32
63954;BME280;50128;52.094;5.232;2022-09-09T00:08:58;100652.0;;;16.46;91.23
63954;BME280;50128;52.094;5.232;2022-09-09T00:10:39;100647.0;;;16.61;89.41
63954;BME280;50128;52.094;5.232;2022-09-09T00:12:25;100646.0;;;16.59;89.69
63954;BME280;50128;52.094;5.232;2022-09-09T00:14:17;100643.0;;;16.73;88.58
63954;BME280;50128;52.094;5.232;2022-09-09T00:17:47;100647.0;;;16.62;89.0
63954;BME280;50128;52.094;5.232;2022-09-09T00:19:31;100644.0;;;16.73;88.32
63954;BME280;50128;52.094;5.232;2022-09-09T00:21:17;100637.0;;;16.61;89.26
63954;BME280;50128;52.094;5.232;2022-09-09T00:22:57;100638.0;;;16.77;88.19
63954;BME280;50128;52.094;5.232;2022-09-09T00:24:42;100637.0;;;16.66;88.7
63954;BME280;50128;52.094;5.232;2022-09-09T00:28:13;100636.0;;;16.65;88.24
63954;BME280;50128;52.094;5.232;2022-09-09T00:29:56;100639.0;;;16.57;89.15
63954;BME280;50128;52.094;5.232;2022-09-09T00:31:37;100631.0;;;16.47;89.77
63954;BME280;50128;52.094;5.232;2022-09-09T00:33:18;100638.0;;;16.28;90.68
63954;BME280;50128;52.094;5.232;2022-09-09T00:34:57;100637.0;;;16.25;91.46
63954;BME280;50128;52.094;5.232;2022-09-09T00:38:18;100633.0;;;16.18;91.46
63954;BME280;50128;52.094;5.232;2022-09-09T00:39:59;100632.0;;;16.23;91.14
63954;BME280;50128;52.094;5.232;2022-09-09T00:41:59;100633.0;;;16.38;89.86
63954;BME280;50128;52.094;5.232;2022-09-09T00:43:39;100635.0;;;16.23;90.68
63954;BME280;50128;52.094;5.232;2022-09-09T00:47:38;100634.0;;;16.27;90.19
63954;BME280;50128;52.094;5.232;2022-09-09T00:49:38;100635.0;;;16.18;90.7
63954;BME280;50128;52.094;5.232;2022-09-09T00:51:29;100634.0;;;16.18;90.94
63954;BME280;50128;52.094;5.232;2022-09-09T00:53:22;100641.0;;;16.14;91.02
63954;BME280;50128;52.094;5.232;2022-09-09T00:55:09;100645.0;;;16.11;91.12
63954;BME280;50128;52.094;5.232;2022-09-09T00:57:04;100639.0;;;16.13;91.0
63954;BME280;50128;52.094;5.232;2022-09-09T00:58:42;100645.0;;;15.9;92.07
63954;BME280;50128;52.094;5.232;2022-09-09T01:00:29;100647.0;;;16.06;91.56
63954;BME280;50128;52.094;5.232;2022-09-09T01:02:16;100650.0;;;15.83;92.78
63954;BME280;50128;52.094;5.232;2022-09-09T01:05:35;100648.0;;;15.95;92.24
63954;BME280;50128;52.094;5.232;2022-09-09T01:07:17;100649.0;;;15.72;92.83
63954;BME280;50128;52.094;5.232;2022-09-09T01:09:02;100642.0;;;15.87;92.52
63954;BME280;50128;52.094;5.232;2022-09-09T01:10:58;100638.0;;;15.6;93.44
63954;BME280;50128;52.094;5.232;2022-09-09T01:12:40;100639.0;;;15.56;94.47
63954;BME280;50128;52.094;5.232;2022-09-09T01:16:10;100633.0;;;15.75;93.43
63954;BME280;50128;52.094;5.232;2022-09-09T01:17:53;100634.0;;;15.82;92.57
63954;BME280;50128;52.094;5.232;2022-09-09T01:19:40;100633.0;;;15.8;92.22
63954;BME280;50128;52.094;5.232;2022-09-09T01:21:33;100630.0;;;15.87;91.71
63954;BME280;50128;52.094;5.232;2022-09-09T01:23:25;100626.0;;;15.89;91.5
63954;BME280;50128;52.094;5.232;2022-09-09T01:25:20;100628.0;;;15.62;93.16
63954;BME280;50128;52.094;5.232;2022-09-09T01:27:51;100630.0;;;15.62;92.86
63954;BME280;50128;52.094;5.232;2022-09-09T01:29:32;100626.0;;;15.56;93.47
63954;BME280;50128;52.094;5.232;2022-09-09T01:32:53;100630.0;;;15.54;93.12
63954;BME280;50128;52.094;5.232;2022-09-09T01:34:35;100628.0;;;15.69;92.49
63954;BME280;50128;52.094;5.232;2022-09-09T01:36:21;100630.0;;;15.53;92.97
63954;BME280;50128;52.094;5.232;2022-09-09T01:38:00;100627.0;;;15.52;93.14
63954;BME280;50128;52.094;5.232;2022-09-09T01:41:18;100634.0;;;15.57;92.74
63954;BME280;50128;52.094;5.232;2022-09-09T01:42:55;100630.0;;;15.42;93.42
63954;BME280;50128;52.094;5.232;2022-09-09T01:44:32;100631.0;;;15.6;92.81
63954;BME280;50128;52.094;5.232;2022-09-09T01:46:11;100630.0;;;15.46;93.39
63954;BME280;50128;52.094;5.232;2022-09-09T01:49:26;100628.0;;;15.54;93.07
63954;BME280;50128;52.094;5.232;2022-09-09T01:51:03;100626.0;;;15.35;93.77
63954;BME280;50128;52.094;5.232;2022-09-09T01:52:39;100624.0;;;15.48;93.0
63954;BME280;50128;52.094;5.232;2022-09-09T01:55:59;100615.0;;;15.53;92.82
63954;BME280;50128;52.094;5.232;2022-09-09T01:57:44;100616.0;;;15.26;93.5
63954;BME280;50128;52.094;5.232;2022-09-09T01:59:43;100611.0;;;15.28;94.29
63954;BME280;50128;52.094;5.232;2022-09-09T02:01:34;100612.0;;;15.41;93.42
63954;BME280;50128;52.094;5.232;2022-09-09T02:03:21;100609.0;;;15.18;94.17
63954;BME280;50128;52.094;5.232;2022-09-09T02:05:09;100610.0;;;15.23;94.65
63954;BME280;50128;52.094;5.232;2022-09-09T02:08:37;100605.0;;;15.28;93.9
63954;BME280;50128;52.094;5.232;2022-09-09T02:10:20;100601.0;;;15.41;92.61
63954;BME280;50128;52.094;5.232;2022-09-09T02:12:08;100600.0;;;15.38;92.77
63954;BME280;50128;52.094;5.232;2022-09-09T02:13:50;100596.0;;;15.42;92.17
63954;BME280;50128;52.094;5.232;2022-09-09T02:15:32;100594.0;;;15.33;92.86
63954;BME280;50128;52.094;5.232;2022-09-09T02:19:02;100594.0;;;15.18;93.97
63954;BME280;50128;52.094;5.232;2022-09-09T02:20:42;100588.0;;;15.17;94.18
63954;BME280;50128;52.094;5.232;2022-09-09T02:22:22;100596.0;;;15.23;93.71
63954;BME280;50128;52.094;5.232;2022-09-09T02:24:02;100598.0;;;15.02;94.67
63954;BME280;50128;52.094;5.232;2022-09-09T02:27:20;100598.0;;;14.97;94.79
63954;BME280;50128;52.094;5.232;2022-09-09T02:28:59;100602.0;;;15.21;93.64
63954;BME280;50128;52.094;5.232;2022-09-09T02:30:39;100601.0;;;15.19;93.96
63954;BME280;50128;52.094;5.232;2022-09-09T02:32:21;100600.0;;;15.25;93.3
63954;BME280;50128;52.094;5.232;2022-09-09T02:35:38;100598.0;;;15.32;92.77
63954;BME280;50128;52.094;5.232;2022-09-09T02:37:20;100598.0;;;15.35;92.49
63954;BME280;50128;52.094;5.232;2022-09-09T02:38:58;100597.0;;;15.42;91.9
63954;BME280;50128;52.094;5.232;2022-09-09T02:40:35;100597.0;;;15.27;93.03
63954;BME280;50128;52.094;5.232;2022-09-09T02:43:47;100599.0;;;15.17;93.08
63954;BME280;50128;52.094;5.232;2022-09-09T02:45:27;100597.0;;;15.19;93.45
63954;BME280;50128;52.094;5.232;2022-09-09T02:47:16;100597.0;;;15.04;94.55
63954;BME280;50128;52.094;5.232;2022-09-09T02:49:03;100595.0;;;15.09;94.83
63954;BME280;50128;52.094;5.232;2022-09-09T02:52:38;100592.0;;;15.04;94.42
63954;BME280;50128;52.094;5.232;2022-09-09T02:54:25;100597.0;;;14.96;94.82
63954;BME280;50128;52.094;5.232;2022-09-09T02:56:05;100588.0;;;14.95;94.92
63954;BME280;50128;52.094;5.232;2022-09-09T02:57:48;100585.0;;;15.15;93.67
63954;BME280;50128;52.094;5.232;2022-09-09T02:59:26;100588.0;;;15.04;94.29
63954;BME280;50128;52.094;5.232;2022-09-09T03:02:39;100585.0;;;15.17;93.43
63954;BME280;50128;52.094;5.232;2022-09-09T03:04:15;100592.0;;;15.17;93.18
63954;BME280;50128;52.094;5.232;2022-09-09T03:05:51;100584.0;;;15.21;92.8
63954;BME280;50128;52.094;5.232;2022-09-09T03:09:04;100589.0;;;15.31;91.97
63954;BME280;50128;52.094;5.232;2022-09-09T03:10:40;100585.0;;;15.26;92.02
63954;BME280;50128;52.094;5.232;2022-09-09T03:12:16;100588.0;;;15.2;92.66
63954;BME280;50128;52.094;5.232;2022-09-09T03:13:53;100589.0;;;15.43;91.3
63954;BME280;50128;52.094;5.232;2022-09-09T03:17:09;100585.0;;;15.31;91.71
63954;BME280;50128;52.094;5.232;2022-09-09T03:18:46;100580.0;;;15.23;92.29
63954;BME280;50128;52.094;5.232;2022-09-09T03:20:22;100580.0;;;15.17;92.39
63954;BME280;50128;52.094;5.232;2022-09-09T03:23:36;100580.0;;;15.26;91.67
63954;BME280;50128;52.094;5.232;2022-09-09T03:25:12;100580.0;;;15.03;93.22
63954;BME280;50128;52.094;5.232;2022-09-09T03:26:50;100581.0;;;15.19;91.98
63954;BME280;50128;52.094;5.232;2022-09-09T03:30:08;100581.0;;;15.19;91.58
63954;BME280;50128;52.094;5.232;2022-09-09T03:31:44;100585.0;;;15.32;91.17
63954;BME280;50128;52.094;5.232;2022-09-09T03:33:20;100578.0;;;15.18;91.62
63954;BME280;50128;52.094;5.232;2022-09-09T03:34:57;100580.0;;;15.3;90.73
63954;BME280;50128;52.094;5.232;2022-09-09T03:38:10;100574.0;;;15.25;91.1
63954;BME280;50128;52.094;5.232;2022-09-09T03:39:46;100580.0;;;15.19;91.61
63954;BME280;50128;52.094;5.232;2022-09-09T03:41:24;100582.0;;;15.3;90.71
63954;BME280;50128;52.094;5.232;2022-09-09T03:44:37;100577.0;;;15.24;90.81
63954;BME280;50128;52.094;5.232;2022-09-09T03:46:13;100571.0;;;15.29;90.61
63954;BME280;50128;52.094;5.232;2022-09-09T03:47:50;100572.0;;;15.22;91.07
63954;BME280;50128;52.094;5.232;2022-09-09T03:49:28;100577.0;;;15.2;91.44
63954;BME280;50128;52.094;5.232;2022-09-09T03:52:42;100580.0;;;15.19;91.12
63954;BME280;50128;52.094;5.232;2022-09-09T03:54:18;100575.0;;;15.32;90.37
63954;BME280;50128;52.094;5.232;2022-09-09T03:55:56;100580.0;;;15.1;91.03
63954;BME280;50128;52.094;5.232;2022-09-09T03:59:12;100576.0;;;14.78;92.7
63954;BME280;50128;52.094;5.232;2022-09-09T04:00:53;100574.0;;;15.02;91.97
63954;BME280;50128;52.094;5.232;2022-09-09T04:02:30;100573.0;;;14.87;92.53
63954;BME280;50128;52.094;5.232;2022-09-09T04:04:08;100570.0;;;14.73;93.04
63954;BME280;50128;52.094;5.232;2022-09-09T04:07:25;100580.0;;;14.97;92.93
63954;BME280;50128;52.094;5.232;2022-09-09T04:09:03;100580.0;;;15.0;92.35
63954;BME280;50128;52.094;5.232;2022-09-09T04:10:39;100574.0;;;15.0;92.03
63954;BME280;50128;52.094;5.232;2022-09-09T04:13:52;100569.0;;;14.92;93.14
63954;BME280;50128;52.094;5.232;2022-09-09T04:15:29;100565.0;;;14.97;92.41
63954;BME280;50128;52.094;5.232;2022-09-09T04:17:06;100568.0;;;15.1;91.58
63954;BME280;50128;52.094;5.232;2022-09-09T04:20:19;100563.0;;;15.05;92.03
63954;BME280;50128;52.094;5.232;2022-09-09T04:21:55;100566.0;;;15.01;92.51
63954;BME280;50128;52.094;5.232;2022-09-09T04:25:08;100562.0;;;15.1;92.44
63954;BME280;50128;52.094;5.232;2022-09-09T04:28:23;100560.0;;;15.14;92.57
63954;BME280;50128;52.094;5.232;2022-09-09T04:30:01;100555.0;;;15.3;91.57
63954;BME280;50128;52.094;5.232;2022-09-09T04:31:41;100558.0;;;15.15;91.61
63954;BME280;50128;52.094;5.232;2022-09-09T04:34:54;100559.0;;;15.26;91.56
63954;BME280;50128;52.094;5.232;2022-09-09T04:36:32;100560.0;;;15.2;91.58
63954;BME280;50128;52.094;5.232;2022-09-09T04:38:09;100551.0;;;15.2;91.7
63954;BME280;50128;52.094;5.232;2022-09-09T04:39:45;100550.0;;;15.31;90.81
63954;BME280;50128;52.094;5.232;2022-09-09T04:42:58;100547.0;;;15.14;91.56
63954;BME280;50128;52.094;5.232;2022-09-09T04:44:35;100545.0;;;15.15;91.19
63954;BME280;50128;52.094;5.232;2022-09-09T04:46:11;100540.0;;;15.22;91.07
63954;BME280;50128;52.094;5.232;2022-09-09T04:49:23;100540.0;;;15.25;91.03
63954;BME280;50128;52.094;5.232;2022-09-09T04:51:01;100545.0;;;15.1;91.55
63954;BME280;50128;52.094;5.232;2022-09-09T04:52:37;100549.0;;;14.97;92.65
63954;BME280;50128;52.094;5.232;2022-09-09T04:55:50;100551.0;;;15.1;92.73
63954;BME280;50128;52.094;5.232;2022-09-09T04:57:26;100549.0;;;15.08;92.61
63954;BME280;50128;52.094;5.232;2022-09-09T04:59:03;100549.0;;;15.16;91.55
63954;BME280;50128;52.094;5.232;2022-09-09T05:00:38;100549.0;;;15.05;92.8
63954;BME280;50128;52.094;5.232;2022-09-09T05:03:52;100545.0;;;15.15;92.21
63954;BME280;50128;52.094;5.232;2022-09-09T05:05:28;100546.0;;;15.17;91.97
63954;BME280;50128;52.094;5.232;2022-09-09T05:07:04;100546.0;;;15.22;91.87
63954;BME280;50128;52.094;5.232;2022-09-09T05:10:18;100545.0;;;15.15;92.07
63954;BME280;50128;52.094;5.232;2022-09-09T05:11:58;100541.0;;;15.16;92.32
63954;BME280;50128;52.094;5.232;2022-09-09T05:13:34;100543.0;;;15.07;92.56
63954;BME280;50128;52.094;5.232;2022-09-09T05:16:47;100538.0;;;15.08;92.56
63954;BME280;50128;52.094;5.232;2022-09-09T05:18:23;100541.0;;;15.16;92.53
63954;BME280;50128;52.094;5.232;2022-09-09T05:20:00;100534.0;;;15.16;92.57
63954;BME280;50128;52.094;5.232;2022-09-09T05:21:36;100538.0;;;15.09;92.69
63954;BME280;50128;52.094;5.232;2022-09-09T05:24:50;100533.0;;;15.14;93.0
63954;BME280;50128;52.094;5.232;2022-09-09T05:26:26;100541.0;;;15.14;92.97
63954;BME280;50128;52.094;5.232;2022-09-09T05:28:02;100536.0;;;15.17;92.52
63954;BME280;50128;52.094;5.232;2022-09-09T05:31:17;100540.0;;;15.09;92.89
63954;BME280;50128;52.094;5.232;2022-09-09T05:32:55;100543.0;;;15.04;93.27
63954;BME280;50128;52.094;5.232;2022-09-09T05:34:32;100546.0;;;15.24;92.39
63954;BME280;50128;52.094;5.232;2022-09-09T05:36:10;100533.0;;;15.27;92.56
63954;BME280;50128;52.094;5.232;2022-09-09T05:39:23;100526.0;;;15.22;92.84
63954;BME280;50128;52.094;5.232;2022-09-09T05:41:00;100528.0;;;15.25;92.4
63954;BME280;50128;52.094;5.232;2022-09-09T05:42:37;100527.0;;;15.23;92.55
63954;BME280;50128;52.094;5.232;2022-09-09T05:45:59;100526.0;;;15.37;92.35
63954;BME280;50128;52.094;5.232;2022-09-09T05:47:35;100524.0;;;15.44;91.61
63954;BME280;50128;52.094;5.232;2022-09-09T05:49:12;100528.0;;;15.31;92.58
63954;BME280;50128;52.094;5.232;2022-09-09T05:50:52;100535.0;;;15.2;93.14
63954;BME280;50128;52.094;5.232;2022-09-09T05:54:05;100539.0;;;15.22;93.42
63954;BME280;50128;52.094;5.232;2022-09-09T05:55:42;100540.0;;;15.35;92.95
63954;BME280;50128;52.094;5.232;2022-09-09T05:57:19;100542.0;;;15.4;92.66
63954;BME280;50128;52.094;5.232;2022-09-09T06:00:32;100542.0;;;15.36;93.12
63954;BME280;50128;52.094;5.232;2022-09-09T06:02:09;100547.0;;;15.34;93.2
63954;BME280;50128;52.094;5.232;2022-09-09T06:03:47;100547.0;;;15.25;93.72
63954;BME280;50128;52.094;5.232;2022-09-09T06:07:00;100548.0;;;15.31;93.88
63954;BME280;50128;52.094;5.232;2022-09-09T06:08:40;100544.0;;;15.21;94.62
63954;BME280;50128;52.094;5.232;2022-09-09T06:10:16;100547.0;;;15.4;93.97
63954;BME280;50128;52.094;5.232;2022-09-09T06:11:54;100544.0;;;15.5;93.32
63954;BME280;50128;52.094;5.232;2022-09-09T06:15:09;100542.0;;;15.51;93.3
63954;BME280;50128;52.094;5.232;2022-09-09T06:16:46;100542.0;;;15.48;93.28
63954;BME280;50128;52.094;5.232;2022-09-09T06:18:22;100542.0;;;15.57;92.86
63954;BME280;50128;52.094;5.232;2022-09-09T06:21:36;100542.0;;;15.62;92.8
63954;BME280;50128;52.094;5.232;2022-09-09T06:23:13;100542.0;;;15.63;92.81
63954;BME280;50128;52.094;5.232;2022-09-09T06:24:49;100531.0;;;15.77;92.48
63954;BME280;50128;52.094;5.232;2022-09-09T06:26:26;100530.0;;;15.77;92.64
63954;BME280;50128;52.094;5.232;2022-09-09T06:29:39;100534.0;;;15.82;93.32
63954;BME280;50128;52.094;5.232;2022-09-09T06:31:18;100533.0;;;15.78;93.14
63954;BME280;50128;52.094;5.232;2022-09-09T06:32:56;100537.0;;;15.8;93.82
63954;BME280;50128;52.094;5.232;2022-09-09T06:36:11;100537.0;;;15.95;93.28
63954;BME280;50128;52.094;5.232;2022-09-09T06:37:48;100532.0;;;16.03;92.94
63954;BME280;50128;52.094;5.232;2022-09-09T06:39:24;100534.0;;;16.12;92.5
63954;BME280;50128;52.094;5.232;2022-09-09T06:41:02;100526.0;;;16.03;92.83
63954;BME280;50128;52.094;5.232;2022-09-09T06:44:15;100530.0;;;16.15;92.95
63954;BME280;50128;52.094;5.232;2022-09-09T06:45:53;100531.0;;;16.3;92.46
63954;BME280;50128;52.094;5.232;2022-09-09T06:47:30;100525.0;;;16.23;92.43
63954;BME280;50128;52.094;5.232;2022-09-09T06:50:43;100526.0;;;16.43;91.9
63954;BME280;50128;52.094;5.232;2022-09-09T06:52:20;100528.0;;;16.54;91.55
63954;BME280;50128;52.094;5.232;2022-09-09T06:53:57;100530.0;;;16.54;91.46
63954;BME280;50128;52.094;5.232;2022-09-09T06:57:11;100527.0;;;16.75;90.89
63954;BME280;50128;52.094;5.232;2022-09-09T06:58:50;100530.0;;;16.86;90.83
63954;BME280;50128;52.094;5.232;2022-09-09T07:00:26;100530.0;;;16.75;90.36
63954;BME280;50128;52.094;5.232;2022-09-09T07:02:03;100531.0;;;16.72;89.75
63954;BME280;50128;52.094;5.232;2022-09-09T07:05:16;100530.0;;;16.66;90.0
63954;BME280;50128;52.094;5.232;2022-09-09T07:06:52;100530.0;;;16.9;90.54
63954;BME280;50128;52.094;5.232;2022-09-09T07:08:28;100528.0;;;17.09;89.76
63954;BME280;50128;52.094;5.232;2022-09-09T07:11:43;100527.0;;;17.03;89.01
63954;BME280;50128;52.094;5.232;2022-09-09T07:13:23;100530.0;;;17.23;88.15
63954;BME280;50128;52.094;5.232;2022-09-09T07:15:01;100521.0;;;17.12;87.72
63954;BME280;50128;52.094;5.232;2022-09-09T07:16:37;100522.0;;;17.27;87.98
63954;BME280;50128;52.094;5.232;2022-09-09T07:19:49;100521.0;;;17.45;86.95
63954;BME280;50128;52.094;5.232;2022-09-09T07:21:27;100519.0;;;17.32;86.03
63954;BME280;50128;52.094;5.232;2022-09-09T07:23:04;100530.0;;;17.52;86.26
63954;BME280;50128;52.094;5.232;2022-09-09T07:26:19;100530.0;;;17.36;85.8
63954;BME280;50128;52.094;5.232;2022-09-09T07:27:57;100527.0;;;17.61;85.16
63954;BME280;50128;52.094;5.232;2022-09-09T07:29:33;100528.0;;;17.68;85.07
63954;BME280;50128;52.094;5.232;2022-09-09T07:32:51;100527.0;;;17.82;84.24
63954;BME280;50128;52.094;5.232;2022-09-09T07:34:27;100530.0;;;18.0;84.21
63954;BME280;50128;52.094;5.232;2022-09-09T07:36:06;100523.0;;;18.13;83.42
63954;BME280;50128;52.094;5.232;2022-09-09T07:37:43;100534.0;;;17.86;82.87
63954;BME280;50128;52.094;5.232;2022-09-09T07:41:03;100531.0;;;17.91;82.62
63954;BME280;50128;52.094;5.232;2022-09-09T07:42:39;100536.0;;;17.95;82.23
63954;BME280;50128;52.094;5.232;2022-09-09T07:44:18;100539.0;;;17.89;83.62
63954;BME280;50128;52.094;5.232;2022-09-09T07:45:57;100538.0;;;17.93;84.04
63954;BME280;50128;52.094;5.232;2022-09-09T07:49:11;100539.0;;;17.95;83.65
63954;BME280;50128;52.094;5.232;2022-09-09T07:50:47;100547.0;;;17.97;83.39
63954;BME280;50128;52.094;5.232;2022-09-09T07:52:23;100544.0;;;17.88;82.76
63954;BME280;50128;52.094;5.232;2022-09-09T07:55:38;100549.0;;;17.63;82.79
63954;BME280;50128;52.094;5.232;2022-09-09T07:57:15;100545.0;;;17.73;82.92
63954;BME280;50128;52.094;5.232;2022-09-09T07:58:53;100547.0;;;17.84;83.17
63954;BME280;50128;52.094;5.232;2022-09-09T08:00:30;100550.0;;;17.71;82.86
63954;BME280;50128;52.094;5.232;2022-09-09T08:03:45;100551.0;;;17.78;83.08
63954;BME280;50128;52.094;5.232;2022-09-09T08:05:28;100543.0;;;17.7;83.04
63954;BME280;50128;52.094;5.232;2022-09-09T08:07:04;100543.0;;;17.8;82.89
63954;BME280;50128;52.094;5.232;2022-09-09T08:10:18;100538.0;;;17.77;82.97
63954;BME280;50128;52.094;5.232;2022-09-09T08:11:57;100546.0;;;17.71;81.92
63954;BME280;50128;52.094;5.232;2022-09-09T08:13:34;100543.0;;;17.87;83.0
63954;BME280;50128;52.094;5.232;2022-09-09T08:15:11;100540.0;;;17.7;82.02
63954;BME280;50128;52.094;5.232;2022-09-09T08:18:26;100537.0;;;17.53;82.13
63954;BME280;50128;52.094;5.232;2022-09-09T08:20:06;100544.0;;;17.55;82.15
63954;BME280;50128;52.094;5.232;2022-09-09T08:21:43;100549.0;;;17.61;82.13
63954;BME280;50128;52.094;5.232;2022-09-09T08:24:58;100547.0;;;17.71;81.66
63954;BME280;50128;52.094;5.232;2022-09-09T08:26:36;100544.0;;;17.61;81.87
63954;BME280;50128;52.094;5.232;2022-09-09T08:28:12;100550.0;;;17.7;82.86
63954;BME280;50128;52.094;5.232;2022-09-09T08:29:48;100550.0;;;17.8;81.91
63954;BME280;50128;52.094;5.232;2022-09-09T08:34:41;100546.0;;;17.75;80.98
63954;BME280;50128;52.094;5.232;2022-09-09T08:36:20;100547.0;;;17.91;81.73
63954;BME280;50128;52.094;5.232;2022-09-09T08:39:34;100548.0;;;18.05;80.7
63954;BME280;50128;52.094;5.232;2022-09-09T08:41:30;100551.0;;;18.09;80.47
63954;BME280;50128;52.094;5.232;2022-09-09T08:43:43;100552.0;;;18.05;80.27
63954;BME280;50128;52.094;5.232;2022-09-09T08:45:29;100555.0;;;18.11;79.3
63954;BME280;50128;52.094;5.232;2022-09-09T08:47:13;100562.0;;;18.23;78.92
63954;BME280;50128;52.094;5.232;2022-09-09T08:49:02;100561.0;;;17.96;79.22
63954;BME280;50128;52.094;5.232;2022-09-09T08:50:44;100569.0;;;17.87;79.44
63954;BME280;50128;52.094;5.232;2022-09-09T08:54:03;100566.0;;;18.04;79.52
63954;BME280;50128;52.094;5.232;2022-09-09T08:55:44;100563.0;;;17.7;80.41
63954;BME280;50128;52.094;5.232;2022-09-09T08:57:25;100565.0;;;17.75;80.24
63954;BME280;50128;52.094;5.232;2022-09-09T08:59:04;100562.0;;;17.79;80.3
63954;BME280;50128;52.094;5.232;2022-09-09T09:02:50;100562.0;;;17.97;79.58
63954;BME280;50128;52.094;5.232;2022-09-09T09:04:45;100565.0;;;17.84;79.84
63954;BME280;50128;52.094;5.232;2022-09-09T09:06:38;100571.0;;;17.96;79.47
63954;BME280;50128;52.094;5.232;2022-09-09T09:08:26;100568.0;;;17.73;80.2
63954;BME280;50128;52.094;5.232;2022-09-09T09:10:16;100570.0;;;17.97;79.19
63954;BME280;50128;52.094;5.232;2022-09-09T09:12:06;100571.0;;;17.91;80.77
63954;BME280;50128;52.094;5.232;2022-09-09T09:13:47;100573.0;;;17.82;79.49
63954;BME280;50128;52.094;5.232;2022-09-09T09:17:15;100577.0;;;17.86;79.78
63954;BME280;50128;52.094;5.232;2022-09-09T09:18:55;100575.0;;;17.98;79.59
63954;BME280;50128;52.094;5.232;2022-09-09T09:20:38;100569.0;;;18.02;80.92
63954;BME280;50128;52.094;5.232;2022-09-09T09:22:21;100568.0;;;18.11;80.31
63954;BME280;50128;52.094;5.232;2022-09-09T09:25:39;100572.0;;;18.09;78.94
63954;BME280;50128;52.094;5.232;2022-09-09T09:27:25;100582.0;;;18.02;78.86
63954;BME280;50128;52.094;5.232;2022-09-09T09:29:11;100578.0;;;17.89;79.52
63954;BME280;50128;52.094;5.232;2022-09-09T09:30:50;100574.0;;;18.07;78.81
63954;BME280;50128;52.094;5.232;2022-09-09T09:34:12;100574.0;;;18.03;79.33
63954;BME280;50128;52.094;5.232;2022-09-09T09:35:48;100573.0;;;18.03;79.48
63954;BME280;50128;52.094;5.232;2022-09-09T09:37:27;100572.0;;;18.0;79.77
63954;BME280;50128;52.094;5.232;2022-09-09T09:39:06;100580.0;;;18.03;79.5
63954;BME280;50128;52.094;5.232;2022-09-09T09:42:29;100580.0;;;18.0;82.52
63954;BME280;50128;52.094;5.232;2022-09-09T09:44:19;100590.0;;;17.95;84.21
63954;BME280;50128;52.094;5.232;2022-09-09T09:46:00;100593.0;;;17.97;84.2
63954;BME280;50128;52.094;5.232;2022-09-09T09:47:41;100587.0;;;18.02;84.57
63954;BME280;50128;52.094;5.232;2022-09-09T09:49:17;100583.0;;;17.75;85.47
63954;BME280;50128;52.094;5.232;2022-09-09T09:52:35;100580.0;;;17.62;86.56
63954;BME280;50128;52.094;5.232;2022-09-09T09:54:18;100583.0;;;17.56;86.42
63954;BME280;50128;52.094;5.232;2022-09-09T09:56:00;100580.0;;;17.63;86.54
63954;BME280;50128;52.094;5.232;2022-09-09T09:57:39;100577.0;;;17.61;86.93
63954;BME280;50128;52.094;5.232;2022-09-09T10:01:20;100577.0;;;17.61;87.02
63954;BME280;50128;52.094;5.232;2022-09-09T10:03:00;100575.0;;;17.63;86.96
63954;BME280;50128;52.094;5.232;2022-09-09T10:04:36;100573.0;;;17.64;87.21
63954;BME280;50128;52.094;5.232;2022-09-09T10:06:12;100577.0;;;17.73;87.37
63954;BME280;50128;52.094;5.232;2022-09-09T10:09:37;100573.0;;;17.72;87.24
63954;BME280;50128;52.094;5.232;2022-09-09T10:11:26;100569.0;;;17.75;87.24
63954;BME280;50128;52.094;5.232;2022-09-09T10:13:12;100567.0;;;17.66;87.5
63954;BME280;50128;52.094;5.232;2022-09-09T10:14:57;100572.0;;;17.84;86.11
63954;BME280;50128;52.094;5.232;2022-09-09T10:16:48;100570.0;;;17.53;85.99
63954;BME280;50128;52.094;5.232;2022-09-09T10:20:32;100581.0;;;17.59;86.04
63954;BME280;50128;52.094;5.232;2022-09-09T10:22:21;100584.0;;;17.55;86.45
63954;BME280;50128;52.094;5.232;2022-09-09T10:24:18;100584.0;;;17.52;87.27
63954;BME280;50128;52.094;5.232;2022-09-09T10:26:12;100581.0;;;17.39;88.39
63954;BME280;50128;52.094;5.232;2022-09-09T10:28:22;100581.0;;;17.57;88.25
63954;BME280;50128;52.094;5.232;2022-09-09T10:31:06;100581.0;;;17.39;88.39
63954;BME280;50128;52.094;5.232;2022-09-09T10:33:00;100583.0;;;17.52;89.47
63954;BME280;50128;52.094;5.232;2022-09-09T10:34:53;100587.0;;;17.62;89.6
63954;BME280;50128;52.094;5.232;2022-09-09T10:36:32;100587.0;;;17.18;89.87
63954;BME280;50128;52.094;5.232;2022-09-09T10:38:16;100582.0;;;17.3;90.62
63954;BME280;50128;52.094;5.232;2022-09-09T10:40:03;100580.0;;;17.5;90.05
63954;BME280;50128;52.094;5.232;2022-09-09T10:41:57;100577.0;;;17.54;89.76
63954;BME280;50128;52.094;5.232;2022-09-09T10:43:48;100580.0;;;17.7;90.37
63954;BME280;50128;52.094;5.232;2022-09-09T10:47:36;100574.0;;;17.7;89.55
63954;BME280;50128;52.094;5.232;2022-09-09T10:49:36;100570.0;;;17.48;89.47
63954;BME280;50128;52.094;5.232;2022-09-09T10:51:23;100574.0;;;17.27;90.63
63954;BME280;50128;52.094;5.232;2022-09-09T10:53:12;100574.0;;;17.66;91.63
63954;BME280;50128;52.094;5.232;2022-09-09T10:54:56;100570.0;;;17.54;91.06
63954;BME280;50128;52.094;5.232;2022-09-09T10:56:36;100570.0;;;17.56;90.98
63954;BME280;50128;52.094;5.232;2022-09-09T11:00:05;100569.0;;;17.43;92.08
63954;BME280;50128;52.094;5.232;2022-09-09T11:01:45;100565.0;;;17.68;90.14
63954;BME280;50128;52.094;5.232;2022-09-09T11:03:25;100565.0;;;17.88;90.67
63954;BME280;50128;52.094;5.232;2022-09-09T11:05:08;100569.0;;;17.86;90.21
63954;BME280;50128;52.094;5.232;2022-09-09T11:06:54;100567.0;;;17.82;89.03
63954;BME280;50128;52.094;5.232;2022-09-09T11:10:20;100565.0;;;17.63;88.31